x

Georgian Bay (45137) Wave Buoy

8:00am - Wed 1st Oct 2014 All times are CDT. -5 hours from GMT.

  • Sig Wave height 1.0ft
  • Peak Period 2s
  • Wind
    9mph, 11mph gusts
  • Sea Temp 58°f
  • Air Temp 56°f
  • Sea Pressure 1019.8mb
  • Georgian Bay
  • Georgian Bay

More Historic Weather Station data

Upgrade to MSW Pro to gain access to the past 30 days of data for over 8000 Wavebouys and Weather Stations around the globe.

Join Pro

Comparision Forecast

View Surf forecast
   
Wed 10/01 8:00am 1ft 2s 9 11 mph 1019.8mb 58f 56f
7:00am 1ft 3s 9 11 mph 1019.5mb 58f 56f
6:00am 1ft 3s 9 11 mph 1019.1mb 58f 56f
5:00am 1ft 3s 11
mph
1018.6mb 58f 56f
4:00am 1ft 3s 9 11 mph 1018.6mb 58f 56f
3:00am 1.3ft 3s 9 13 mph 1018.5mb 58f 55f
2:00am 1.6ft 3s 11 13 mph 1018.7mb 58f 55f
1:00am 2ft 4s 13 18 mph 1018.7mb 58f 53f
12:00am 2.5ft 4s 13 16 mph 1018.7mb 58f 53f
Tue 09/30 11:00pm 3ft 4s 16 20 mph 1018.4mb 58f 52f
10:00pm 3.5ft 4s 18 22 mph 1018.4mb 58f 52f
9:00pm 3.5ft 4s 20 25 mph 1018mb 58f 52f
8:00pm 3.5ft 4s 22 25 mph 1017.7mb 58f 53f
7:00pm 3.5ft 5s 22 27 mph 1017.4mb 58f 53f
5:00pm 3.5ft 4s 20 25 mph 1016.2mb 58f 53f
4:00pm 3.5ft 4s 20 25 mph 1016mb 58f 54f
3:00pm 3.5ft 5s 20 25 mph 1015.6mb 58f 53f
2:00pm 3.5ft 5s 22 27 mph 1015.7mb 58f 52f
1:00pm 4ft 5s 22 25 mph 1015.6mb 58f 52f
12:00pm 4ft 5s 22 29 mph 1015.6mb 58f 51f
11:00am 4ft 5s 22 27 mph 1015.3mb 58f 51f
9:00am 4.5ft 5s 25 31 mph 1014.4mb 58f 50f
8:00am 4.5ft 5s 27 31 mph 1014.2mb 58f 50f
7:00am 5ft 5s 27 31 mph 1013.9mb 58f 49f
5:00am 4.5ft 5s 27 31 mph 1013.2mb 58f 49f
4:00am 4.5ft 5s 25
mph
1012.9mb 58f 49f
3:00am  -   -  25
mph
- - -
2:00am 4.5ft 5s 25 29 mph 1012.4mb 58f 50f
1:00am 4.5ft 5s 27 31 mph 1012.1mb 58f 50f
Mon 09/29 10:00pm 3ft 4s 22 27 mph 1012.8mb 59f 51f
9:00pm 2.5ft 4s 18 22 mph 1013.3mb 59f 52f
8:00pm 2.5ft 4s 18 22 mph 1013mb 59f 53f
7:00pm 2.5ft 4s 18 20 mph 1012.9mb 59f 53f
6:00pm 2.5ft 4s 20 22 mph 1012.9mb 60f 54f
5:00pm 2.5ft 4s 20 25 mph 1013.2mb 60f 55f
4:00pm 1.6ft 3s 20 22 mph 1013.2mb 60f 56f
3:00pm 1ft 3s 13 18 mph 1013.3mb 60f 58f
2:00pm 0.7ft 3s 11 13 mph 1013.9mb 60f 57f
1:00pm 0.3ft 2s 11 13 mph 1014.4mb 60f 56f
12:00pm 0.3ft 2s 9 11 mph 1015mb 59f 56f
11:00am 0.7ft 3s 4
mph
1015.3mb 59f 58f
10:00am 0.7ft 3s 9
mph
1015.5mb 59f 57f
9:00am 0.7ft 3s 7 9 mph 1016.2mb 59f 56f
8:00am 1ft 3s 9
mph
1016.5mb 59f 56f
7:00am 1.3ft 3s 9 11 mph 1016.7mb 58f 56f
6:00am 1.3ft 4s 11 13 mph 1016.7mb 59f 56f
5:00am 1.6ft 4s 11 16 mph 1016.6mb 59f 56f
4:00am 1.3ft 3s 13 16 mph 1016.8mb 59f 58f
3:00am 0.7ft 2s 13 18 mph 1016.8mb 59f 60f
2:00am 0.3ft 2s 11 13 mph 1016.5mb 59f 60f
1:00am 0.3ft 3s 2
mph
1016.9mb 59f 60f
12:00am 0.7ft 3s  -  2 mph 1017.3mb 59f 60f
Sun 09/28 11:00pm 0.7ft 3s 4 7 mph 1017.4mb 59f 60f
10:00pm 0.7ft 3s 7 9 mph 1017.5mb 60f 60f
9:00pm 0.7ft 3s 11
mph
1017.7mb 60f 61f
8:00pm 0.7ft 3s 9 11 mph 1018mb 60f 61f
7:00pm 1ft 3s 9
mph
1018mb 60f 61f
6:00pm 1ft 3s 11 13 mph 1018mb 60f 62f
5:00pm 0.7ft 3s 11 13 mph 1018.3mb 60f 62f
4:00pm 0.7ft 3s 9 11 mph 1018.6mb 60f 62f
3:00pm 0.3ft 2s 9
mph
1019mb 60f 62f
2:00pm 0.7ft 2s 7
mph
1019.4mb 60f 62f
1:00pm 0.3ft 2s 4 7 mph 1020.1mb 60f 61f
12:00pm 0.3ft 2s 7 9 mph 1020.8mb 60f 61f
11:00am 0.3ft 2s 9
mph
1021.2mb 59f 60f
10:00am 0.3ft 2s 9 11 mph 1021.6mb 59f 60f
9:00am 0.3ft 2s 7 9 mph 1021.9mb 59f 60f
8:00am  -  2s 9
mph
1022mb 59f 60f
7:00am  -  2s 4 7 mph 1021.8mb 59f 60f
6:00am  -  2s 4
mph
1021.6mb 59f 59f
5:00am  -  2s 4 7 mph 1022.1mb 59f 59f
4:00am  -  2s 4
mph
1022.7mb 59f 59f
3:00am  -  2s 4
mph
1022.9mb 59f 59f
2:00am 0.3ft 2s 2
mph
1023.2mb 59f 59f
1:00am 0.3ft 2s 4
mph
1023.2mb 59f 60f
12:00am 0.3ft 2s 4
mph
1023.1mb 59f 59f
Sat 09/27 11:00pm 0.3ft 2s 4
mph
1023.1mb 59f 60f
10:00pm 0.3ft 2s 4
mph
1023.4mb 59f 60f
9:00pm 0.3ft 2s 2
mph
1023.7mb 59f 60f
8:00pm 0.3ft 2s 7
mph
1023.6mb 59f 60f
7:00pm 0.3ft 2s 4 7 mph 1023.7mb 59f 60f
5:00pm 0.3ft 2s 7
mph
1023.9mb 60f 61f
4:00pm 0.3ft 2s 7
mph
1024.5mb 60f 61f
3:00pm 0.3ft 2s 4
mph
1024.9mb 60f 61f